Abadi — V8V2002 — position and weather

sailwx.info

Track history (hours):
 
Tides and Currents Weather Stations Pressure Air Temp Water Temp Dewpoint Dewpoint Depression Visibility Wind Speed Wind Dir Waves Ship Positions

Abadi

Last reported at 2014-Oct-18 23:29 UTC. Time now 2014-Oct-22 13:54 UTC.
Position N 36°54' E 125°58'.

Type: Ship (hazmat cat A). MMSI: 508011000.

Date/timePositionNaut miles runAvg speedWind from/ knotsBaromVisibWave heightAir tempDewpointWater temp
2014-Oct-18 23:29N 36°54' E 125°58'1010.2
2014-Oct-18 22:33N 36°50' E 125°48'1010.2
2014-Oct-18 21:33N 36°46' E 125°36'1313.3
2014-Oct-18 20:32N 36°43' E 125°20'2813.9
2014-Oct-18 18:33N 36°26' E 124°52'1913.8
2014-Oct-18 17:11N 36°14' E 124°35'6 8.9
2014-Oct-18 16:33N 36°18' E 124°32'7 6.2
2014-Oct-18 15:22N 36°14' E 124°24'1012.3
2014-Oct-18 14:33N 36°07' E 124°15'1413.2
2014-Oct-18 13:29N 35°53' E 124°11'  
Track history (hours):
 
Tides and Currents Weather Stations Pressure Air Temp Water Temp Dewpoint Dewpoint Depression Visibility Wind Speed Wind Dir Waves Ship Positions

Abadi

Last reported at 2014-Oct-18 23:29 UTC. Time now 2014-Oct-22 13:54 UTC.
Position N 36°54' E 125°58'.

Type: Ship (hazmat cat A). MMSI: 508011000.

Date/timePositionNaut miles runAvg speedWind from/ knotsBaromVisibWave heightAir tempDewpointWater temp
2014-Oct-18 23:29N 36°54' E 125°58'1010.2
2014-Oct-18 22:33N 36°50' E 125°48'1010.2
2014-Oct-18 21:33N 36°46' E 125°36'1313.3
2014-Oct-18 20:32N 36°43' E 125°20'2813.9
2014-Oct-18 18:33N 36°26' E 124°52'1913.8
2014-Oct-18 17:11N 36°14' E 124°35'6 8.9
2014-Oct-18 16:33N 36°18' E 124°32'7 6.2
2014-Oct-18 15:22N 36°14' E 124°24'1012.3
2014-Oct-18 14:33N 36°07' E 124°15'1413.2
2014-Oct-18 13:29N 35°53' E 124°11'  

Dump ship's entire track history